Time;durP1;ratioP1;P1;durP2;ratioP2;P2;SDS_P1;SDS_P2;PMS_P1;PMS_P2;Temp;Humidity;BMP_temperature;BMP_pressure;BME280_temperature;BME280_humidity;BME280_pressure;Samples;Min_cycle;Max_cycle;Signal;HPM_P1;HPM_P2
2023/01/11 00:01:56;;;;;;;15.70;8.77;;;7.90;99.90;;;;;;5020805;28;20069;-67
2023/01/11 00:04:28;;;;;;;13.02;8.77;;;7.90;99.90;;;;;;5019383;28;20041;-66
2023/01/11 00:06:55;;;;;;;17.67;9.43;;;7.70;99.90;;;;;;5018889;28;20408;-65
2023/01/11 00:09:20;;;;;;;13.98;8.20;;;7.70;99.90;;;;;;5018176;28;20029;-67
2023/01/11 00:11:46;;;;;;;16.35;8.88;;;7.80;99.90;;;;;;5024706;28;20155;-69
2023/01/11 00:14:13;;;;;;;16.50;8.48;;;7.80;99.90;;;;;;5028480;28;20072;-67
2023/01/11 00:16:38;;;;;;;15.27;8.13;;;7.80;99.90;;;;;;5024557;28;20049;-68
2023/01/11 00:19:04;;;;;;;17.23;8.80;;;8.20;99.90;;;;;;5018018;28;20040;-67
2023/01/11 00:21:30;;;;;;;15.48;8.95;;;8.20;99.90;;;;;;5017557;28;20041;-67
2023/01/11 00:23:55;;;;;;;14.68;8.07;;;8.20;99.90;;;;;;5026435;28;20049;-67
2023/01/11 00:26:21;;;;;;;16.70;9.00;;;8.00;99.90;;;;;;5018482;28;20044;-66
2023/01/11 00:28:48;;;;;;;16.00;8.77;;;8.30;99.90;;;;;;5015703;28;20456;-68
2023/01/11 00:31:14;;;;;;;15.88;8.88;;;7.90;99.90;;;;;;5018954;28;20038;-66
2023/01/11 00:33:39;;;;;;;14.35;8.40;;;8.20;99.90;;;;;;5017841;28;20040;-67
2023/01/11 00:36:05;;;;;;;14.82;8.57;;;8.10;99.90;;;;;;5025831;28;20813;-69
2023/01/11 00:38:43;;;;;;;13.45;8.35;;;8.10;99.90;;;;;;5017778;28;20425;-64
2023/01/11 00:49:24;;;;;;;14.45;8.15;;;8.40;99.90;;;;;;5028931;28;20049;-66
2023/01/11 00:51:49;;;;;;;15.20;8.32;;;8.20;99.90;;;;;;5012624;28;20480;-66
2023/01/11 00:54:15;;;;;;;15.38;8.57;;;8.20;99.90;;;;;;5016191;28;20033;-65
2023/01/11 00:56:41;;;;;;;15.25;8.32;;;8.50;99.90;;;;;;5022506;28;20048;-68
2023/01/11 00:59:07;;;;;;;13.77;8.48;;;8.30;99.90;;;;;;5018101;28;20041;-65
2023/01/11 01:01:32;;;;;;;14.95;8.32;;;8.50;99.90;;;;;;5016389;28;20069;-66
2023/01/11 01:04:02;;;;;;;14.48;8.38;;;8.40;99.90;;;;;;5020229;28;20038;-68
2023/01/11 01:06:28;;;;;;;15.97;8.67;;;8.60;99.90;;;;;;5010663;28;20046;-66
2023/01/11 01:08:54;;;;;;;13.80;7.85;;;8.60;99.90;;;;;;5022207;28;20048;-66
2023/01/11 01:11:20;;;;;;;13.88;7.88;;;8.60;99.90;;;;;;5024220;28;20087;-65
2023/01/11 01:16:33;;;;;;;15.02;8.73;;;8.70;99.90;;;;;;5021382;28;20060;-67
2023/01/11 01:18:59;;;;;;;13.13;7.97;;;8.70;99.90;;;;;;5018009;28;20049;-67
2023/01/11 01:21:25;;;;;;;12.07;7.50;;;8.50;99.90;;;;;;5012899;28;20037;-67
2023/01/11 01:23:52;;;;;;;13.45;7.43;;;8.80;99.90;;;;;;5016377;28;20076;-65
2023/01/11 01:26:18;;;;;;;15.05;8.00;;;8.80;99.90;;;;;;5024151;28;20038;-67
2023/01/11 01:28:43;;;;;;;15.77;8.13;;;8.80;99.90;;;;;;5013113;28;20472;-66
2023/01/11 01:31:09;;;;;;;14.93;8.30;;;8.60;99.90;;;;;;5021782;28;20041;-65
2023/01/11 01:33:35;;;;;;;14.45;8.05;;;8.80;99.90;;;;;;5022111;28;20029;-67
2023/01/11 01:36:01;;;;;;;15.70;8.85;;;8.60;99.90;;;;;;5023127;28;20103;-68
2023/01/11 01:38:27;;;;;;;14.32;8.20;;;8.80;99.90;;;;;;5029888;28;20049;-65
2023/01/11 01:40:53;;;;;;;11.98;7.28;;;8.60;99.90;;;;;;5017762;28;20477;-67
2023/01/11 01:43:18;;;;;;;14.40;8.20;;;8.60;99.90;;;;;;5017640;28;20038;-66
2023/01/11 01:45:44;;;;;;;13.40;8.02;;;8.60;99.90;;;;;;5023741;28;20555;-66
2023/01/11 01:48:17;;;;;;;15.30;8.35;;;8.50;99.90;;;;;;5028547;28;20433;-66
2023/01/11 01:50:56;;;;;;;18.33;8.55;;;8.80;99.90;;;;;;5022357;28;20038;-63
2023/01/11 01:53:39;;;;;;;13.75;7.93;;;8.60;99.90;;;;;;5017449;28;20453;-65
2023/01/11 01:56:09;;;;;;;15.45;8.68;;;8.60;99.90;;;;;;5021001;28;20049;-66
2023/01/11 01:58:40;;;;;;;13.32;7.65;;;8.90;99.90;;;;;;5017121;28;20068;-64
2023/01/11 02:03:51;;;;;;;14.60;8.45;;;8.70;99.90;;;;;;5022209;28;20489;-66
2023/01/11 02:06:18;;;;;;;11.75;7.28;;;8.80;99.90;;;;;;5018845;28;20550;-67
2023/01/11 02:08:47;;;;;;;14.32;8.02;;;8.80;99.90;;;;;;5017739;28;20087;-65
2023/01/11 02:11:30;;;;;;;19.42;8.73;;;8.80;99.90;;;;;;5016949;28;20065;-66
2023/01/11 02:13:58;;;;;;;15.98;8.55;;;8.90;99.90;;;;;;5019419;28;20042;-67
2023/01/11 02:16:24;;;;;;;17.40;8.35;;;9.00;99.90;;;;;;5021462;28;20083;-70
2023/01/11 02:18:50;;;;;;;13.98;7.65;;;8.90;99.90;;;;;;5019795;28;20484;-66
2023/01/11 02:21:41;;;;;;;14.63;7.82;;;9.20;99.90;;;;;;5020612;28;20071;-65
2023/01/11 02:24:06;;;;;;;15.98;8.48;;;9.10;99.90;;;;;;5021039;28;20045;-65
2023/01/11 02:26:44;;;;;;;15.98;7.47;;;8.90;99.90;;;;;;5013994;28;20065;-65
2023/01/11 02:29:27;;;;;;;13.48;7.40;;;9.20;99.90;;;;;;5021361;28;20045;-64
2023/01/11 02:32:20;;;;;;;13.50;7.47;;;9.10;99.90;;;;;;5019037;28;20049;-66
2023/01/11 02:35:14;;;;;;;11.93;7.30;;;9.20;99.90;;;;;;5014621;28;20437;-68
2023/01/11 02:38:00;;;;;;;15.50;7.75;;;9.30;99.90;;;;;;5023455;28;20116;-67
2023/01/11 02:40:37;;;;;;;15.45;8.15;;;9.30;99.90;;;;;;5015962;28;20120;-66
2023/01/11 02:46:45;;;;;;;12.93;7.20;;;9.10;99.90;;;;;;5022351;28;20519;-66
2023/01/11 02:49:15;;;;;;;12.23;7.22;;;9.30;99.90;;;;;;5019732;28;20528;-66
2023/01/11 02:51:57;;;;;;;12.60;7.15;;;9.50;99.90;;;;;;5016815;28;20781;-66
2023/01/11 02:54:23;;;;;;;13.77;7.47;;;9.40;99.90;;;;;;5027843;28;20037;-68
2023/01/11 02:56:55;;;;;;;13.52;7.07;;;9.40;99.90;;;;;;5029396;28;20045;-65
2023/01/11 02:59:28;;;;;;;10.52;6.35;;;9.30;99.90;;;;;;5019186;28;20504;-65
2023/01/11 03:01:54;;;;;;;18.58;7.38;;;9.30;99.90;;;;;;5013832;28;20060;-65
2023/01/11 03:04:23;;;;;;;12.55;6.60;;;9.50;99.90;;;;;;5024766;28;20461;-67
2023/01/11 03:06:53;;;;;;;12.02;6.60;;;9.40;99.90;;;;;;5013731;28;20476;-65
2023/01/11 03:09:34;;;;;;;12.93;6.70;;;9.50;99.90;;;;;;5024584;28;20068;-66
2023/01/11 03:15:17;;;;;;;14.05;6.32;;;9.60;99.90;;;;;;5023344;28;20483;-66
2023/01/11 03:18:01;;;;;;;10.75;5.95;;;9.40;99.90;;;;;;5017097;28;20034;-65
2023/01/11 03:20:53;;;;;;;10.00;5.88;;;9.50;99.90;;;;;;5026712;28;20069;-67
2023/01/11 03:24:03;;;;;;;10.35;6.40;;;9.60;99.90;;;;;;5019517;28;20095;-66
2023/01/11 03:26:38;;;;;;;11.75;5.97;;;9.40;99.90;;;;;;5018472;28;20046;-66
2023/01/11 03:29:07;;;;;;;11.13;6.38;;;9.60;99.90;;;;;;5019668;28;20037;-65
2023/01/11 03:31:44;;;;;;;10.27;5.90;;;9.70;99.90;;;;;;5020876;28;20044;-67
2023/01/11 03:34:34;;;;;;;10.50;5.88;;;9.60;99.90;;;;;;5022940;28;20044;-66
2023/01/11 03:37:24;;;;;;;9.32;5.20;;;9.40;99.90;;;;;;5023832;28;20136;-66
2023/01/11 03:40:04;;;;;;;11.50;5.25;;;9.50;99.90;;;;;;5018253;28;20049;-66
2023/01/11 03:42:32;;;;;;;8.13;4.60;;;9.60;99.90;;;;;;5022348;28;20048;-65
2023/01/11 03:45:01;;;;;;;10.95;5.18;;;9.60;99.90;;;;;;5026605;28;20053;-66
2023/01/11 03:47:28;;;;;;;8.43;4.22;;;9.70;99.90;;;;;;5026663;28;20041;-65
2023/01/11 03:50:05;;;;;;;6.70;3.90;;;9.70;99.90;;;;;;5014587;28;20539;-65
2023/01/11 03:52:35;;;;;;;9.85;4.65;;;9.80;99.90;;;;;;5028015;28;20116;-65
2023/01/11 03:55:03;;;;;;;;;;;9.50;99.90;;;;;;5025394;28;20057;-66
2023/01/11 03:57:33;;;;;;;6.32;3.88;;;9.70;99.90;;;;;;5021850;28;19921;-64
2023/01/11 03:59:59;;;;;;;9.48;4.32;;;9.70;99.90;;;;;;5022468;28;20053;-65
2023/01/11 04:02:32;;;;;;;5.20;3.30;;;9.60;99.90;;;;;;5014962;28;20516;-64
2023/01/11 04:04:57;;;;;;;5.43;3.05;;;9.80;99.90;;;;;;5013588;28;20107;-67
2023/01/11 04:07:23;;;;;;;4.95;2.85;;;9.90;99.90;;;;;;5019323;28;20042;-67
2023/01/11 04:09:48;;;;;;;3.55;2.53;;;9.90;99.90;;;;;;5019211;28;20037;-64
2023/01/11 04:12:14;;;;;;;5.38;3.08;;;9.80;99.90;;;;;;5023506;28;20469;-66
2023/01/11 04:14:40;;;;;;;5.60;2.63;;;9.90;99.90;;;;;;5025360;28;20041;-64
2023/01/11 04:17:05;;;;;;;4.40;2.40;;;10.00;99.90;;;;;;5021161;28;20073;-64
2023/01/11 04:19:31;;;;;;;4.50;2.67;;;9.70;99.90;;;;;;5017371;28;20041;-64
2023/01/11 04:21:56;;;;;;;5.72;2.35;;;9.90;99.90;;;;;;5013191;28;20104;-66
2023/01/11 04:24:22;;;;;;;2.70;1.90;;;9.90;99.90;;;;;;5023854;28;20038;-65
2023/01/11 04:26:48;;;;;;;2.25;1.40;;;10.00;99.90;;;;;;5016132;28;20096;-64
2023/01/11 04:29:13;;;;;;;2.97;1.60;;;10.00;99.90;;;;;;5015772;28;20537;-66
2023/01/11 04:31:39;;;;;;;2.88;1.45;;;10.00;99.90;;;;;;5021071;28;20079;-64
2023/01/11 04:34:04;;;;;;;3.63;1.83;;;9.90;99.90;;;;;;5025290;28;20400;-66
2023/01/11 04:36:31;;;;;;;4.13;2.00;;;9.90;99.90;;;;;;5015416;28;20369;-64
2023/01/11 04:38:57;;;;;;;4.10;2.42;;;9.90;99.90;;;;;;5022183;28;20053;-64
2023/01/11 04:44:08;;;;;;;4.88;2.70;;;10.10;99.90;;;;;;5020825;28;20144;-64
2023/01/11 04:46:33;;;;;;;6.63;3.80;;;10.00;99.90;;;;;;5025695;28;20145;-65
2023/01/11 04:48:59;;;;;;;8.23;4.10;;;9.90;99.90;;;;;;5019788;28;20068;-64
2023/01/11 04:51:24;;;;;;;10.25;3.58;;;10.00;99.90;;;;;;5025714;28;20033;-64
2023/01/11 04:53:50;;;;;;;8.98;4.25;;;10.20;99.90;;;;;;5015446;28;20124;-64
2023/01/11 04:56:16;;;;;;;10.00;4.45;;;10.20;99.90;;;;;;5023453;28;20091;-64
2023/01/11 04:58:42;;;;;;;13.38;5.20;;;10.00;99.90;;;;;;5028345;28;20041;-63
2023/01/11 05:01:15;;;;;;;11.02;5.47;;;10.00;99.90;;;;;;5024041;28;20244;-65
2023/01/11 05:03:41;;;;;;;10.27;5.43;;;10.20;99.90;;;;;;5024904;28;20041;-64
2023/01/11 05:06:07;;;;;;;11.32;5.78;;;10.20;99.90;;;;;;5016741;28;20026;-64
2023/01/11 05:08:33;;;;;;;13.65;5.55;;;10.20;99.90;;;;;;5017618;28;20524;-64
2023/01/11 05:11:02;;;;;;;16.92;6.63;;;10.20;99.90;;;;;;5016923;28;20046;-64
2023/01/11 05:13:40;;;;;;;20.85;6.57;;;10.00;99.90;;;;;;5019162;28;20693;-64
2023/01/11 05:16:22;;;;;;;22.85;6.43;;;10.30;99.90;;;;;;5023942;28;20044;-64
2023/01/11 05:18:53;;;;;;;20.42;7.05;;;10.30;99.90;;;;;;5027855;28;20113;-65
2023/01/11 05:21:21;;;;;;;14.60;5.88;;;10.20;99.90;;;;;;5020322;28;20049;-65
2023/01/11 05:23:47;;;;;;;18.33;6.78;;;10.20;99.90;;;;;;5017996;28;20566;-64
2023/01/11 05:26:18;;;;;;;20.73;6.90;;;10.20;99.90;;;;;;5020424;28;20045;-65
2023/01/11 05:28:45;;;;;;;19.63;6.50;;;10.10;99.90;;;;;;5015556;28;20069;-64
2023/01/11 05:31:11;;;;;;;21.92;6.88;;;10.00;99.90;;;;;;5022513;28;20038;-65
2023/01/11 05:33:37;;;;;;;28.80;7.43;;;10.00;99.90;;;;;;5028813;28;20129;-65
2023/01/11 05:36:06;;;;;;;28.00;7.25;;;10.00;99.90;;;;;;5026678;28;20116;-65
2023/01/11 05:38:31;;;;;;;24.70;6.40;;;10.00;99.90;;;;;;5024305;28;20041;-65
2023/01/11 05:40:58;;;;;;;25.02;6.65;;;10.00;99.90;;;;;;5014454;28;20037;-65
2023/01/11 05:43:25;;;;;;;20.27;6.43;;;9.90;99.90;;;;;;5019949;28;20041;-64
2023/01/11 05:45:51;;;;;;;27.52;6.80;;;10.10;99.90;;;;;;5025391;28;20053;-65
2023/01/11 05:48:17;;;;;;;17.83;5.45;;;9.90;99.90;;;;;;5017538;28;20061;-65
2023/01/11 05:50:43;;;;;;;19.05;5.22;;;9.90;99.90;;;;;;5029759;28;20029;-65
2023/01/11 05:53:09;;;;;;;20.73;5.93;;;9.80;99.90;;;;;;5019551;28;20095;-65
2023/01/11 05:55:35;;;;;;;23.25;5.15;;;9.90;99.90;;;;;;5018157;28;20083;-65
2023/01/11 05:58:00;;;;;;;22.30;4.70;;;10.10;99.90;;;;;;5019118;28;20041;-65
2023/01/11 06:00:26;;;;;;;23.75;5.10;;;9.80;99.90;;;;;;5024836;28;20045;-65
2023/01/11 06:02:51;;;;;;;24.67;4.82;;;9.80;99.90;;;;;;5019232;28;20041;-65
2023/01/11 06:05:17;;;;;;;26.02;4.72;;;9.80;99.90;;;;;;5024980;28;20060;-65
2023/01/11 06:07:43;;;;;;;25.92;5.10;;;9.80;99.90;;;;;;5026673;28;20496;-65
2023/01/11 06:10:09;;;;;;;23.85;6.20;;;9.70;99.90;;;;;;5018473;28;20045;-65
2023/01/11 06:12:34;;;;;;;23.50;4.75;;;9.60;99.90;;;;;;5017997;28;20033;-65
2023/01/11 06:15:00;;;;;;;24.17;4.93;;;9.80;99.90;;;;;;5025902;28;20037;-65
2023/01/11 06:17:26;;;;;;;21.10;4.18;;;9.60;99.90;;;;;;5024150;28;20056;-66
2023/01/11 06:19:51;;;;;;;21.50;5.07;;;9.70;99.90;;;;;;5022954;28;20086;-66
2023/01/11 06:22:17;;;;;;;30.13;5.00;;;9.70;99.90;;;;;;5018260;28;20473;-66
2023/01/11 06:24:42;;;;;;;25.52;4.70;;;9.80;99.90;;;;;;5017519;28;20045;-66
2023/01/11 06:27:08;;;;;;;33.00;5.85;;;9.80;99.90;;;;;;5020273;28;20049;-66
2023/01/11 06:29:33;;;;;;;25.33;4.82;;;9.60;99.90;;;;;;5020690;28;20116;-66
2023/01/11 06:31:59;;;;;;;21.90;4.70;;;9.60;99.90;;;;;;5023109;28;20061;-66
2023/01/11 06:34:24;;;;;;;20.88;4.57;;;9.80;99.90;;;;;;5029268;28;20033;-66
2023/01/11 06:36:50;;;;;;;17.35;4.72;;;9.80;99.90;;;;;;5024566;28;20034;-66
2023/01/11 06:39:16;;;;;;;32.58;5.85;;;9.50;99.90;;;;;;5015252;28;20041;-66
2023/01/11 06:41:41;;;;;;;31.00;5.70;;;9.80;99.90;;;;;;5019049;28;20384;-66
2023/01/11 06:44:07;;;;;;;28.27;5.72;;;9.60;99.90;;;;;;5022947;28;20038;-66
2023/01/11 06:46:32;;;;;;;28.60;5.70;;;9.50;99.90;;;;;;5016469;28;20093;-66
2023/01/11 06:49:00;;;;;;;31.20;5.32;;;9.70;99.90;;;;;;5018423;28;20052;-66
2023/01/11 06:51:25;;;;;;;31.23;6.05;;;9.70;99.90;;;;;;5018705;28;20038;-66
2023/01/11 06:53:51;;;;;;;25.00;5.15;;;9.50;99.90;;;;;;5030878;28;20045;-66
2023/01/11 06:56:19;;;;;;;28.77;5.28;;;9.60;99.90;;;;;;5023727;28;20048;-66
2023/01/11 06:58:45;;;;;;;20.52;4.65;;;9.60;99.90;;;;;;5019712;28;20119;-66
2023/01/11 07:01:11;;;;;;;24.83;4.82;;;9.40;99.90;;;;;;5022051;28;20042;-66
2023/01/11 07:03:38;;;;;;;28.75;4.60;;;9.60;99.90;;;;;;5017669;28;20038;-66
2023/01/11 07:06:03;;;;;;;24.58;4.88;;;9.40;99.90;;;;;;5013048;28;20080;-66
2023/01/11 07:08:29;;;;;;;22.60;4.45;;;9.40;99.90;;;;;;5013403;28;20479;-66
2023/01/11 07:10:54;;;;;;;25.27;4.45;;;9.60;99.90;;;;;;5025874;28;20045;-66
2023/01/11 07:13:20;;;;;;;20.38;4.45;;;9.20;99.90;;;;;;5021478;28;20040;-66
2023/01/11 07:15:49;;;;;;;28.67;4.43;;;9.50;99.90;;;;;;5025018;28;20159;-66
2023/01/11 07:18:16;;;;;;;25.27;3.85;;;9.20;99.90;;;;;;5023424;28;20033;-66
2023/01/11 07:20:42;;;;;;;22.45;3.85;;;9.20;99.90;;;;;;5028671;28;20048;-66
2023/01/11 07:23:08;;;;;;;17.95;3.83;;;9.40;99.90;;;;;;5026510;28;20025;-67
2023/01/11 07:25:34;;;;;;;20.05;3.65;;;9.30;99.90;;;;;;5024939;28;20037;-66
2023/01/11 07:28:02;;;;;;;20.77;4.50;;;9.30;99.90;;;;;;5021927;28;20076;-66
2023/01/11 07:30:29;;;;;;;21.85;4.05;;;9.40;99.90;;;;;;5025379;28;20091;-66
2023/01/11 07:32:57;;;;;;;21.38;3.20;;;9.50;99.90;;;;;;5023696;28;20810;-66
2023/01/11 07:35:23;;;;;;;22.45;3.58;;;9.30;99.90;;;;;;5018613;28;20042;-66
2023/01/11 07:37:48;;;;;;;19.27;3.30;;;9.30;99.90;;;;;;5028878;28;20041;-66
2023/01/11 07:40:16;;;;;;;17.38;3.90;;;9.30;99.90;;;;;;5029118;28;20048;-66
2023/01/11 07:45:32;;;;;;;25.65;3.63;;;9.30;99.90;;;;;;5015063;28;20405;-66
2023/01/11 07:47:57;;;;;;;21.38;3.65;;;9.50;99.90;;;;;;5011934;28;20401;-66
2023/01/11 07:50:23;;;;;;;26.48;3.85;;;9.40;99.90;;;;;;5022948;28;20091;-66
2023/01/11 07:52:49;;;;;;;22.92;4.28;;;9.20;99.90;;;;;;5024551;28;20488;-67
2023/01/11 07:55:15;;;;;;;31.65;4.43;;;9.40;99.90;;;;;;5021015;28;20061;-66
2023/01/11 07:57:41;;;;;;;27.30;4.57;;;9.50;99.90;;;;;;5026593;28;20041;-66
2023/01/11 08:00:07;;;;;;;26.48;4.45;;;9.20;99.90;;;;;;5020567;28;20393;-66
2023/01/11 08:02:33;;;;;;;23.00;4.20;;;9.30;99.90;;;;;;5029417;28;20041;-66
2023/01/11 08:04:59;;;;;;;27.90;5.40;;;9.40;99.90;;;;;;5027186;28;20623;-66
2023/01/11 08:07:24;;;;;;;24.80;4.90;;;9.50;99.90;;;;;;5026262;28;20452;-67
2023/01/11 08:09:50;;;;;;;26.95;4.53;;;9.30;99.90;;;;;;5022482;28;20034;-67
2023/01/11 08:14:59;;;;;;;30.00;4.78;;;9.50;99.90;;;;;;5016274;28;20088;-66
2023/01/11 08:17:25;;;;;;;26.05;4.90;;;9.20;99.90;;;;;;5012606;28;20100;-67
2023/01/11 08:19:50;;;;;;;32.15;5.63;;;9.40;99.90;;;;;;5022448;28;20346;-66
2023/01/11 08:22:17;;;;;;;25.35;5.28;;;9.30;99.90;;;;;;5024329;28;20037;-67
2023/01/11 08:24:43;;;;;;;30.95;5.85;;;9.40;99.90;;;;;;5021080;28;20038;-67
2023/01/11 08:27:08;;;;;;;21.08;4.72;;;9.40;99.90;;;;;;5015110;28;20046;-66
2023/01/11 08:29:34;;;;;;;23.55;4.13;;;9.20;99.90;;;;;;5012861;28;20034;-66
2023/01/11 08:32:00;;;;;;;29.33;4.80;;;9.10;99.90;;;;;;5015224;28;20037;-66
2023/01/11 08:34:27;;;;;;;26.85;4.20;;;9.20;99.90;;;;;;5021077;28;20045;-66
2023/01/11 08:36:56;;;;;;;19.25;3.85;;;9.10;99.90;;;;;;5025466;28;20045;-66
2023/01/11 08:39:22;;;;;;;20.83;3.75;;;9.10;99.90;;;;;;5012377;28;20474;-67
2023/01/11 08:41:48;;;;;;;17.33;3.08;;;8.90;99.90;;;;;;5027922;28;20045;-65
2023/01/11 08:44:15;;;;;;;14.52;3.25;;;8.90;99.90;;;;;;5021608;28;20047;-66
2023/01/11 08:46:41;;;;;;;12.57;2.55;;;8.80;99.90;;;;;;5013344;28;20698;-67
2023/01/11 08:49:10;;;;;;;11.10;2.63;;;8.70;99.90;;;;;;5014454;28;20044;-66
2023/01/11 08:51:38;;;;;;;16.52;2.60;;;8.40;99.90;;;;;;5016010;28;20041;-66
2023/01/11 08:54:06;;;;;;;18.15;3.53;;;8.40;99.90;;;;;;5015784;28;20033;-66
2023/01/11 08:56:32;;;;;;;16.55;2.72;;;8.30;99.90;;;;;;5022617;28;20334;-66
2023/01/11 08:58:57;;;;;;;14.30;2.53;;;8.30;99.90;;;;;;5013243;28;20100;-66
2023/01/11 09:01:23;;;;;;;12.70;2.35;;;8.10;99.90;;;;;;5012127;28;20856;-66
2023/01/11 09:03:48;;;;;;;10.40;2.70;;;8.30;99.90;;;;;;5023795;28;20115;-66
2023/01/11 09:06:14;;;;;;;14.13;2.88;;;8.20;99.90;;;;;;5024913;28;20029;-67
2023/01/11 09:08:41;;;;;;;9.90;2.10;;;8.10;99.90;;;;;;5020001;28;20030;-66
2023/01/11 09:11:52;;;;;;;13.70;2.50;;;8.00;99.90;;;;;;5018395;28;20441;-66
2023/01/11 09:13:52;;;;;;;14.27;2.47;;;8.10;99.90;;;;;;5019381;28;20043;-66
2023/01/11 09:16:17;;;;;;;7.63;2.17;;;7.90;99.90;;;;;;5015726;28;20482;-65
2023/01/11 09:18:43;;;;;;;10.23;2.03;;;7.90;99.90;;;;;;5020622;28;20124;-66
2023/01/11 09:21:08;;;;;;;11.80;2.10;;;8.10;99.90;;;;;;5024343;28;20465;-66
2023/01/11 09:23:35;;;;;;;14.30;2.85;;;8.20;99.90;;;;;;5019780;28;20505;-66
2023/01/11 09:26:01;;;;;;;17.42;2.10;;;7.90;99.90;;;;;;5026415;28;20057;-66
2023/01/11 09:28:26;;;;;;;15.35;2.85;;;8.00;99.90;;;;;;5020112;28;20033;-66
2023/01/11 09:30:52;;;;;;;10.30;2.15;;;8.10;99.90;;;;;;5030419;28;20069;-66
2023/01/11 09:33:18;;;;;;;15.00;2.35;;;8.20;99.90;;;;;;5025533;28;20056;-66
2023/01/11 09:35:45;;;;;;;11.77;2.58;;;8.20;99.90;;;;;;5022527;28;20104;-66
2023/01/11 09:38:10;;;;;;;11.18;2.47;;;8.20;99.90;;;;;;5030305;28;20135;-66
2023/01/11 09:41:04;;;;;;;14.57;2.88;;;8.00;99.90;;;;;;5027696;28;20128;-66
2023/01/11 09:43:31;;;;;;;12.30;2.20;;;7.90;99.90;;;;;;5020172;28;20046;-65
2023/01/11 09:46:03;;;;;;;11.35;2.30;;;7.90;99.90;;;;;;5017546;28;20057;-66
2023/01/11 09:48:48;;;;;;;9.65;2.15;;;7.80;99.90;;;;;;5017538;28;20089;-65
2023/01/11 09:51:15;;;;;;;12.15;2.25;;;7.90;99.90;;;;;;5018421;28;20049;-67
2023/01/11 09:53:48;;;;;;;14.38;2.72;;;7.80;99.90;;;;;;5022404;28;20041;-66
2023/01/11 09:56:22;;;;;;;12.15;2.05;;;7.70;99.90;;;;;;5021384;28;20050;-66
2023/01/11 09:58:53;;;;;;;10.90;3.45;;;7.90;99.90;;;;;;5018892;28;20033;-65
2023/01/11 10:01:30;;;;;;;9.50;2.30;;;7.90;99.90;;;;;;5015686;28;20048;-67
2023/01/11 10:04:36;;;;;;;15.07;2.60;;;7.80;99.90;;;;;;5016490;28;20132;-66
2023/01/11 10:07:48;;;;;;;14.35;2.28;;;8.10;99.90;;;;;;5023198;28;20041;-65
2023/01/11 10:10:14;;;;;;;13.32;2.72;;;8.20;99.90;;;;;;5013664;28;20063;-66
2023/01/11 10:12:52;;;;;;;15.57;2.28;;;8.20;99.90;;;;;;5015921;28;20057;-66
2023/01/11 10:15:41;;;;;;;13.32;2.67;;;8.10;99.90;;;;;;5013248;28;20132;-67
2023/01/11 10:18:37;;;;;;;13.90;2.55;;;8.40;99.90;;;;;;5017318;28;20077;-66
2023/01/11 10:21:41;;;;;;;14.05;2.40;;;8.40;99.90;;;;;;5025181;28;20129;-66
2023/01/11 10:24:19;;;;;;;12.88;2.35;;;8.40;99.90;;;;;;5024033;28;20038;-66
2023/01/11 10:26:47;;;;;;;7.55;1.98;;;8.30;99.90;;;;;;5019506;28;20065;-66
2023/01/11 10:38:53;;;;;;;15.70;2.50;;;8.70;99.90;;;;;;5030556;28;20041;-63
2023/01/11 10:41:32;;;;;;;12.32;2.83;;;8.60;99.90;;;;;;5017112;28;20041;-64
2023/01/11 10:44:04;;;;;;;13.60;2.83;;;8.90;99.90;;;;;;5021974;28;20124;-63
2023/01/11 10:46:31;;;;;;;29.67;4.10;;;9.00;99.90;;;;;;5018093;28;20058;-63
2023/01/11 10:49:08;;;;;;;12.25;2.65;;;8.90;99.90;;;;;;5022669;28;20046;-63
2023/01/11 10:51:39;;;;;;;15.10;3.25;;;8.90;99.90;;;;;;5021710;28;20045;-63
2023/01/11 10:54:38;;;;;;;15.57;3.08;;;9.00;99.90;;;;;;5027231;28;20041;-62
2023/01/11 10:57:22;;;;;;;14.90;3.25;;;9.20;99.90;;;;;;5004095;28;20057;-61
2023/01/11 11:00:32;;;;;;;12.70;2.63;;;9.10;99.90;;;;;;5003707;28;20056;-63
2023/01/11 11:03:16;;;;;;;10.45;3.92;;;8.90;99.90;;;;;;5022269;28;20053;-61
2023/01/11 11:05:50;;;;;;;13.82;3.28;;;8.90;99.90;;;;;;5020957;28;20041;-63
2023/01/11 11:08:26;;;;;;;16.42;3.70;;;8.90;99.90;;;;;;5022556;28;20041;-63
2023/01/11 11:11:04;;;;;;;15.52;3.45;;;8.90;99.90;;;;;;5017675;28;20044;-62
2023/01/11 11:13:42;;;;;;;14.85;3.88;;;8.80;99.90;;;;;;5014585;28;20045;-61
2023/01/11 11:16:33;;;;;;;18.92;3.70;;;8.80;99.90;;;;;;5022850;28;20034;-63
2023/01/11 11:18:59;;;;;;;16.05;3.30;;;8.60;99.90;;;;;;5019793;28;20049;-61
2023/01/11 11:21:27;;;;;;;16.25;3.58;;;8.60;99.90;;;;;;5015350;28;20037;-62
2023/01/11 11:24:02;;;;;;;21.48;4.85;;;8.80;99.90;;;;;;5016952;28;20546;-64
2023/01/11 11:26:38;;;;;;;21.58;4.05;;;8.80;99.90;;;;;;5030728;28;20091;-61
2023/01/11 11:29:07;;;;;;;13.05;3.40;;;8.80;99.90;;;;;;5018279;28;20085;-62
2023/01/11 11:31:36;;;;;;;16.25;3.63;;;8.80;99.90;;;;;;5018938;28;20077;-62
2023/01/11 11:34:07;;;;;;;19.98;5.28;;;8.90;99.90;;;;;;5023108;28;20076;-62
2023/01/11 11:36:48;;;;;;;17.30;4.53;;;8.80;99.90;;;;;;5013753;28;20037;-63
2023/01/11 11:39:20;;;;;;;13.88;3.55;;;8.70;99.90;;;;;;5020065;28;20055;-62
2023/01/11 11:41:51;;;;;;;21.83;3.92;;;8.70;99.90;;;;;;5024166;28;20034;-62
2023/01/11 11:44:27;;;;;;;16.25;3.78;;;8.80;99.90;;;;;;5030440;28;20120;-62
2023/01/11 11:46:56;;;;;;;15.60;3.83;;;8.50;99.90;;;;;;5026463;28;20052;-62
2023/01/11 11:49:21;;;;;;;20.13;3.47;;;8.50;99.90;;;;;;5031383;28;20057;-62
2023/01/11 11:51:48;;;;;;;19.40;3.53;;;8.50;99.90;;;;;;5021483;28;20503;-61
2023/01/11 11:54:19;;;;;;;14.73;3.03;;;8.40;99.90;;;;;;5026475;28;20041;-61
2023/01/11 11:56:46;;;;;;;15.98;3.33;;;8.50;99.90;;;;;;5027267;28;20037;-62
2023/01/11 11:59:17;;;;;;;13.13;3.08;;;8.50;99.90;;;;;;5013046;28;20489;-62
2023/01/11 12:01:45;;;;;;;15.13;3.25;;;8.60;99.90;;;;;;5029625;28;20029;-61
2023/01/11 12:04:21;;;;;;;16.38;3.65;;;8.80;99.90;;;;;;5039298;28;20081;-61
2023/01/11 12:07:03;;;;;;;16.83;4.07;;;8.90;99.90;;;;;;5012196;28;20466;-60
2023/01/11 12:09:31;;;;;;;15.30;3.33;;;9.00;99.90;;;;;;5023345;28;20051;-62
2023/01/11 12:11:57;;;;;;;15.50;3.42;;;9.10;99.90;;;;;;5019441;28;20045;-62
2023/01/11 12:14:27;;;;;;;13.27;2.95;;;9.00;99.90;;;;;;5015212;28;20064;-61
2023/01/11 12:16:52;;;;;;;14.15;2.50;;;9.10;99.90;;;;;;5023806;28;20052;-60
2023/01/11 12:19:25;;;;;;;15.38;2.97;;;9.00;99.90;;;;;;5026108;28;20444;-62
2023/01/11 12:21:51;;;;;;;11.07;2.28;;;8.90;99.90;;;;;;5013930;28;20044;-62
2023/01/11 12:24:22;;;;;;;14.07;2.92;;;8.80;99.90;;;;;;5018820;28;20045;-62
2023/01/11 12:27:15;;;;;;;12.95;3.05;;;8.80;99.90;;;;;;5025259;28;20041;-62
2023/01/11 12:29:54;;;;;;;18.50;3.33;;;8.70;99.90;;;;;;5023684;28;20138;-62
2023/01/11 12:32:25;;;;;;;14.43;3.20;;;8.60;99.90;;;;;;5018896;28;20084;-62
2023/01/11 12:35:28;;;;;;;10.50;2.60;;;8.60;99.90;;;;;;5031567;28;20037;-61
2023/01/11 12:38:25;;;;;;;13.93;2.85;;;8.60;99.90;;;;;;5019814;28;20057;-62
2023/01/11 12:41:18;;;;;;;13.60;2.50;;;8.70;99.90;;;;;;5021947;28;20041;-61
2023/01/11 12:43:58;;;;;;;17.10;2.70;;;8.70;99.90;;;;;;5021194;28;20040;-61
2023/01/11 12:46:45;;;;;;;18.67;2.63;;;8.70;99.90;;;;;;5029843;28;20478;-61
2023/01/11 12:49:17;;;;;;;19.33;3.50;;;8.70;99.90;;;;;;5020285;28;20144;-62
2023/01/11 12:51:57;;;;;;;15.05;3.20;;;8.70;99.90;;;;;;5024055;28;20037;-62
2023/01/11 12:54:38;;;;;;;14.50;2.70;;;8.60;99.90;;;;;;5022878;28;20176;-62
2023/01/11 12:57:26;;;;;;;18.08;2.92;;;8.60;99.90;;;;;;5013280;28;20045;-61
2023/01/11 13:00:12;;;;;;;15.13;2.85;;;8.60;99.90;;;;;;5019866;28;20559;-61
2023/01/11 13:02:40;;;;;;;16.00;3.42;;;8.50;99.90;;;;;;5018427;28;20532;-62
2023/01/11 13:05:22;;;;;;;13.90;3.08;;;8.60;99.90;;;;;;5015824;28;20564;-61
2023/01/11 13:08:08;;;;;;;17.10;3.05;;;8.60;99.90;;;;;;5011163;28;20132;-62
2023/01/11 13:10:45;;;;;;;14.43;3.45;;;8.60;99.90;;;;;;5009814;28;20781;-62
2023/01/11 13:13:34;;;;;;;17.52;2.78;;;8.60;99.90;;;;;;5011660;28;20057;-62
2023/01/11 13:16:15;;;;;;;19.75;3.08;;;8.60;99.90;;;;;;5010385;28;20046;-61
2023/01/11 13:18:49;;;;;;;13.77;2.65;;;8.70;99.90;;;;;;5017484;28;20117;-63
2023/01/11 13:21:36;;;;;;;11.13;2.20;;;8.60;99.90;;;;;;5018885;28;20050;-62
2023/01/11 13:24:09;;;;;;;16.38;2.80;;;8.60;99.90;;;;;;5028362;28;20046;-61
2023/01/11 13:26:38;;;;;;;14.07;2.97;;;8.50;99.90;;;;;;5030482;28;20497;-62
2023/01/11 13:29:13;;;;;;;15.63;2.80;;;8.50;99.90;;;;;;5029068;28;20042;-62
2023/01/11 13:31:41;;;;;;;15.05;3.78;;;8.40;99.90;;;;;;5029720;28;20413;-61
2023/01/11 13:34:21;;;;;;;17.00;3.35;;;8.40;99.90;;;;;;5031520;28;20037;-62
2023/01/11 13:36:58;;;;;;;22.42;4.00;;;8.30;99.90;;;;;;5015475;28;20057;-61
2023/01/11 13:39:50;;;;;;;12.75;2.95;;;8.30;99.90;;;;;;5011716;28;20048;-61
2023/01/11 13:42:26;;;;;;;14.43;3.05;;;8.30;99.90;;;;;;5012006;28;20060;-61
2023/01/11 13:45:01;;;;;;;15.05;3.17;;;8.30;99.90;;;;;;5009757;28;20045;-61
2023/01/11 13:47:54;;;;;;;17.95;3.38;;;8.30;99.90;;;;;;5012172;28;20042;-61